Terminal Aerodrome Forecast
Issued by NWS

Current Version | Previous Version | Text Only | Print | Product List | Glossary On
Versions: 1 2 3 4 5 6 7 8 9 10 11 12 13 14 15
000
FTUS41 KLWX 251738
TAFMTN
TAF
KMTN 251738Z 2518/2618 15007KT P6SM SCT070
     FM252200 18007KT P6SM SCT250
     FM261600 19011KT P6SM SCT060 BKN250=

USA.gov is the U.S. government's official web portal to all federal, state and local government web resources and services.